Capitol Hill, Washington
Current Conditions -  °F | °C
As of 4:53 AM on Saturday 25 Oct 2014 (Local Time) from KBFI Reporting Station
Clear Clear  
Wind Chill: 52°   Ceiling: Unl
Heat Index: 52°   Visibility: 10mi
Dew Point: 48°   Wind: 0mph
Humidity: 86%   Direction: NA
Pressure: 29.52"   Gusts: NA
Location:  47.6341°N, 122.322°W
Report Text: KBFI 251153Z 00000KT 10SM CLR 11/09 A2952 RMK AO2 SLP997 60001 70018 T01110089 10122 20111 58047
Loading
Personal Weather Stations






























Interactive Weather Map
Tropical Storm Tracking
New forecast layout! Learn more

10-Day Weather Forecast

Advertisements
Track Severe Weather on mobile